createdAt,value
2019-01-06T00:01:56.347Z,9.27
2019-01-06T00:04:54.492Z,10.60
2019-01-06T00:07:46.526Z,9.67
2019-01-06T00:10:38.219Z,10.53
2019-01-06T00:13:26.073Z,13.50
2019-01-06T00:16:14.003Z,9.20
2019-01-06T00:19:06.292Z,9.07
2019-01-06T00:21:54.608Z,8.13
2019-01-06T00:24:42.600Z,9.03
2019-01-06T00:27:30.120Z,13.47
2019-01-06T00:30:13.104Z,10.83
2019-01-06T00:33:17.672Z,12.93
2019-01-06T00:36:05.050Z,12.87
2019-01-06T00:39:03.369Z,10.53
2019-01-06T00:41:52.623Z,14.27
2019-01-06T00:44:47.377Z,11.63
2019-01-06T00:47:39.590Z,14.50
2019-01-06T00:50:27.891Z,13.47
2019-01-06T00:53:28.720Z,15.03
2019-01-06T00:56:20.232Z,15.60
2019-01-06T00:59:09.432Z,19.83
2019-01-06T01:01:57.232Z,12.83
2019-01-06T01:04:44.912Z,13.60
2019-01-06T01:07:49.622Z,18.47
2019-01-06T01:10:38.801Z,13.93
2019-01-06T01:13:27.049Z,22.67
2019-01-06T01:16:15.004Z,16.10
2019-01-06T01:18:57.207Z,17.90
2019-01-06T01:21:48.739Z,19.67
2019-01-06T01:24:32.236Z,17.40
2019-01-06T01:27:20.267Z,15.77
2019-01-06T01:30:11.803Z,16.67
2019-01-06T01:33:05.854Z,17.93
2019-01-06T01:35:55.112Z,16.70
2019-01-06T01:38:47.496Z,20.67
2019-01-06T01:41:35.252Z,16.33
2019-01-06T01:44:24.522Z,20.20
2019-01-06T01:47:19.933Z,18.27
2019-01-06T01:50:12.171Z,18.97
2019-01-06T01:53:07.707Z,18.03
2019-01-06T01:55:59.433Z,19.23
2019-01-06T01:59:00.235Z,18.10
2019-01-06T02:01:48.206Z,16.13
2019-01-06T02:04:46.042Z,14.70
2019-01-06T02:07:26.275Z,16.60
2019-01-06T02:10:09.540Z,15.80
2019-01-06T02:13:10.806Z,14.33
2019-01-06T02:16:02.317Z,17.77
2019-01-06T02:18:53.151Z,16.80
2019-01-06T02:21:40.673Z,17.17
2019-01-06T02:24:45.212Z,16.10
2019-01-06T02:27:32.449Z,17.20
2019-01-06T02:30:27.429Z,14.37
2019-01-06T02:33:31.844Z,13.27
2019-01-06T02:36:21.113Z,14.17
2019-01-06T02:39:18.726Z,16.87
2019-01-06T02:42:20.230Z,15.07
2019-01-06T02:45:08.286Z,11.73
2019-01-06T02:48:09.903Z,13.30
2019-01-06T02:51:16.871Z,14.53
2019-01-06T02:54:11.881Z,11.50
2019-01-06T02:56:59.407Z,12.47
2019-01-06T02:59:47.628Z,12.03
2019-01-06T03:02:35.101Z,11.00
2019-01-06T03:05:23.257Z,15.40
2019-01-06T03:08:12.585Z,13.53
2019-01-06T03:11:16.151Z,14.37
2019-01-06T03:14:10.965Z,10.47
2019-01-06T03:17:18.588Z,10.87
2019-01-06T03:20:05.980Z,16.30
2019-01-06T03:22:51.552Z,11.93
2019-01-06T03:25:39.721Z,13.00
2019-01-06T03:28:32.055Z,10.53
2019-01-06T03:31:32.789Z,11.80
2019-01-06T03:34:28.063Z,10.53
2019-01-06T03:37:20.321Z,13.07
2019-01-06T03:40:17.856Z,11.27
2019-01-06T03:43:05.571Z,9.90
2019-01-06T03:46:13.084Z,9.97
2019-01-06T03:49:03.319Z,10.47
2019-01-06T03:51:50.731Z,13.23
2019-01-06T03:54:58.303Z,12.40
2019-01-06T03:57:50.463Z,11.50
2019-01-06T04:00:45.136Z,9.33
2019-01-06T04:03:46.144Z,12.60
2019-01-06T04:06:44.630Z,10.47
2019-01-06T04:09:32.495Z,9.87
2019-01-06T04:12:30.191Z,9.90
2019-01-06T04:15:13.637Z,11.00
2019-01-06T04:18:15.128Z,9.00
2019-01-06T04:21:03.803Z,10.23
2019-01-06T04:23:51.800Z,12.57
2019-01-06T04:26:40.123Z,11.40
2019-01-06T04:29:31.918Z,8.33
2019-01-06T04:32:19.286Z,8.80
2019-01-06T04:35:06.719Z,11.83
2019-01-06T04:37:55.878Z,9.70
2019-01-06T04:40:59.916Z,11.65
2019-01-06T04:43:47.413Z,8.77
2019-01-06T04:46:38.772Z,9.90
2019-01-06T04:49:39.976Z,8.67
2019-01-06T04:52:45.320Z,7.93
2019-01-06T04:55:35.092Z,10.27
2019-01-06T04:58:42.697Z,10.27
2019-01-06T05:01:41.196Z,10.23
2019-01-06T05:04:29.259Z,10.30
2019-01-06T05:07:33.309Z,9.63
2019-01-06T05:10:26.133Z,11.53
2019-01-06T05:13:18.183Z,10.77
2019-01-06T05:16:04.719Z,14.00
2019-01-06T05:18:57.044Z,10.00
2019-01-06T05:21:40.940Z,11.03
2019-01-06T05:24:28.288Z,17.23
2019-01-06T05:27:15.969Z,13.30
2019-01-06T05:30:03.761Z,11.07
2019-01-06T05:32:53.043Z,13.50
2019-01-06T05:35:41.217Z,12.13
2019-01-06T05:38:30.489Z,10.10
2019-01-06T05:41:38.127Z,11.93
2019-01-06T05:44:27.456Z,10.93
2019-01-06T05:47:31.996Z,15.67
2019-01-06T05:50:26.611Z,13.47
2019-01-06T05:53:31.113Z,11.07
2019-01-06T05:56:23.157Z,12.80
2019-01-06T05:59:15.792Z,14.50
2019-01-06T06:02:13.556Z,12.60
2019-01-06T06:05:00.695Z,10.63
2019-01-06T06:07:58.796Z,13.07
2019-01-06T06:10:47.475Z,17.07
2019-01-06T06:13:34.617Z,11.37
2019-01-06T06:16:35.164Z,21.53
2019-01-06T06:19:36.416Z,13.27
2019-01-06T06:22:33.851Z,11.80
2019-01-06T06:25:28.665Z,9.17
2019-01-06T06:28:27.024Z,12.30
2019-01-06T06:31:14.636Z,10.13
2019-01-06T06:34:07.371Z,14.23
2019-01-06T06:36:55.414Z,11.05
2019-01-06T06:39:46.459Z,12.90
2019-01-06T06:42:34.328Z,16.70
2019-01-06T06:45:26.469Z,12.20
2019-01-06T06:48:30.808Z,11.77
2019-01-06T06:51:26.079Z,16.30
2019-01-06T06:54:09.083Z,14.90
2019-01-06T06:57:09.659Z,14.13
2019-01-06T07:00:18.516Z,15.30
2019-01-06T07:03:10.510Z,13.77
2019-01-06T07:06:02.037Z,14.93
2019-01-06T07:08:50.200Z,15.77
2019-01-06T07:11:38.818Z,16.45
2019-01-06T07:14:26.682Z,14.60
2019-01-06T07:17:57.608Z,16.53
2019-01-06T07:20:49.440Z,16.50
2019-01-06T07:23:44.624Z,13.97
2019-01-06T07:26:31.955Z,16.60
2019-01-06T07:29:24.198Z,13.30
2019-01-06T07:32:12.304Z,13.17
2019-01-06T07:34:57.088Z,16.17
2019-01-06T07:37:52.604Z,15.72
2019-01-06T07:40:41.879Z,14.40
2019-01-06T07:43:39.555Z,13.30
2019-01-06T07:46:26.728Z,18.13
2019-01-06T07:49:34.460Z,16.20
2019-01-06T07:52:23.117Z,14.43
2019-01-06T07:55:27.199Z,12.70
2019-01-06T07:58:15.016Z,12.47
2019-01-06T08:01:02.528Z,13.37
2019-01-06T08:03:51.159Z,15.13
2019-01-06T08:06:43.389Z,12.67
2019-01-06T08:09:31.187Z,15.23
2019-01-06T08:12:28.796Z,13.10
2019-01-06T08:15:23.659Z,15.07
2019-01-06T08:18:11.531Z,13.07
2019-01-06T08:20:59.308Z,13.47
2019-01-06T08:23:51.498Z,11.77
2019-01-06T08:26:40.860Z,14.83
2019-01-06T08:29:38.867Z,14.33
2019-01-06T08:32:30.287Z,16.80
2019-01-06T08:35:17.787Z,12.67
2019-01-06T08:38:07.012Z,13.17
2019-01-06T08:40:48.588Z,14.37
2019-01-06T08:43:39.545Z,11.87
2019-01-06T08:46:37.672Z,11.97
2019-01-06T08:49:38.900Z,23.23
2019-01-06T08:52:24.124Z,12.93
2019-01-06T08:55:11.564Z,13.57
2019-01-06T08:58:13.604Z,15.80
2019-01-06T09:01:17.831Z,13.90
2019-01-06T09:04:09.682Z,10.03
2019-01-06T09:06:57.461Z,10.63
2019-01-06T09:09:49.829Z,14.33
2019-01-06T09:12:46.722Z,12.77
2019-01-06T09:15:38.423Z,10.30
2019-01-06T09:18:39.580Z,10.67
2019-01-06T09:21:27.533Z,14.03
2019-01-06T09:24:19.028Z,11.60
2019-01-06T09:27:17.289Z,13.67
2019-01-06T09:30:18.446Z,13.27
2019-01-06T09:33:16.683Z,11.17
2019-01-06T09:36:04.250Z,10.87
2019-01-06T09:38:56.120Z,13.00
2019-01-06T09:41:51.814Z,10.78
2019-01-06T09:44:43.019Z,13.87
2019-01-06T09:47:49.983Z,11.13
2019-01-06T09:50:43.459Z,13.90
2019-01-06T09:53:30.749Z,11.70
2019-01-06T09:56:26.208Z,11.63
2019-01-06T09:59:15.389Z,13.13
2019-01-06T10:02:16.732Z,12.60
2019-01-06T10:05:18.367Z,17.90
2019-01-06T10:08:26.084Z,8.77
2019-01-06T10:11:15.398Z,12.03
2019-01-06T10:14:07.176Z,10.57
2019-01-06T10:16:55.239Z,13.13
2019-01-06T10:19:47.012Z,10.70
2019-01-06T10:22:35.087Z,14.17
2019-01-06T10:25:23.209Z,12.23
2019-01-06T10:28:15.227Z,11.43
2019-01-06T10:31:03.219Z,13.43
2019-01-06T10:33:51.260Z,13.57
2019-01-06T10:36:44.987Z,10.87
2019-01-06T10:39:34.926Z,11.47
2019-01-06T10:42:23.016Z,10.78
2019-01-06T10:45:10.904Z,8.73
2019-01-06T10:48:17.903Z,9.67
2019-01-06T10:51:03.620Z,10.97
2019-01-06T10:53:51.570Z,10.35
2019-01-06T10:56:35.447Z,9.07
2019-01-06T10:59:30.826Z,13.57
2019-01-06T11:02:16.189Z,13.47
2019-01-06T11:05:14.253Z,7.67
2019-01-06T11:08:09.332Z,8.20
2019-01-06T11:11:01.062Z,14.60
2019-01-06T11:13:41.780Z,9.27
2019-01-06T11:16:28.669Z,13.63
2019-01-06T11:19:16.175Z,10.93
2019-01-06T11:22:03.700Z,8.60
2019-01-06T11:25:05.187Z,9.73
2019-01-06T11:27:52.924Z,11.03
2019-01-06T11:30:56.756Z,10.80
2019-01-06T11:33:43.916Z,11.53
2019-01-06T11:36:31.343Z,10.27
2019-01-06T11:39:18.424Z,7.70
2019-01-06T11:42:04.805Z,9.83
2019-01-06T11:44:58.852Z,13.10
2019-01-06T11:48:05.823Z,9.20
2019-01-06T11:50:53.024Z,10.07
2019-01-06T11:53:50.752Z,13.20
2019-01-06T11:56:32.363Z,13.00
2019-01-06T11:59:21.383Z,10.57
2019-01-06T12:02:18.898Z,10.63
2019-01-06T12:05:07.496Z,11.33
2019-01-06T12:08:02.676Z,9.57
2019-01-06T12:11:06.731Z,14.83
2019-01-06T12:13:58.114Z,15.13
2019-01-06T12:17:01.808Z,14.73
2019-01-06T12:19:53.476Z,11.50
2019-01-06T12:22:45.794Z,16.13
2019-01-06T12:25:40.886Z,13.77
2019-01-06T12:28:45.900Z,9.30
2019-01-06T12:31:33.380Z,9.27
2019-01-06T12:34:24.831Z,14.53
2019-01-06T12:37:25.699Z,12.00
2019-01-06T12:40:13.808Z,11.67
2019-01-06T12:43:06.187Z,17.37
2019-01-06T12:45:55.470Z,12.07
2019-01-06T12:48:56.769Z,11.70
2019-01-06T12:51:44.230Z,14.00
2019-01-06T12:54:45.207Z,14.13
2019-01-06T12:57:44.403Z,12.43
2019-01-06T13:00:32.353Z,14.47
2019-01-06T13:03:21.040Z,16.20
2019-01-06T13:06:14.868Z,16.37
2019-01-06T13:09:04.152Z,16.87
2019-01-06T13:11:51.796Z,18.73
2019-01-06T13:14:59.392Z,17.30
2019-01-06T13:18:03.932Z,17.03
2019-01-06T13:20:51.473Z,15.10
2019-01-06T13:23:35.088Z,12.93
2019-01-06T13:26:22.969Z,12.33
2019-01-06T13:29:21.326Z,12.43
2019-01-06T13:32:07.176Z,14.73
2019-01-06T13:35:08.388Z,12.40
2019-01-06T13:37:55.806Z,12.17
2019-01-06T13:41:02.564Z,17.15
2019-01-06T13:43:54.183Z,12.83
2019-01-06T13:46:49.059Z,16.97
2019-01-06T13:49:47.531Z,14.00
2019-01-06T13:52:35.656Z,13.97
2019-01-06T13:55:23.501Z,13.30
2019-01-06T13:58:21.343Z,11.33
2019-01-06T14:01:10.528Z,14.23
2019-01-06T14:04:14.341Z,10.40
2019-01-06T14:07:01.841Z,12.63
2019-01-06T14:09:59.671Z,14.43
2019-01-06T14:12:46.964Z,15.23
2019-01-06T14:15:44.519Z,13.27
2019-01-06T14:18:51.352Z,15.10
2019-01-06T14:21:38.826Z,15.07
2019-01-06T14:24:27.418Z,16.30
2019-01-06T14:27:19.712Z,16.23
2019-01-06T14:30:10.104Z,14.07
2019-01-06T14:33:14.014Z,14.77
2019-01-06T14:36:01.360Z,12.47
2019-01-06T14:38:48.558Z,14.60
2019-01-06T14:41:38.703Z,12.23
2019-01-06T14:44:26.565Z,11.93
2019-01-06T14:47:21.367Z,17.43
2019-01-06T14:50:08.551Z,16.90
2019-01-06T14:53:05.792Z,19.10
2019-01-06T14:56:00.772Z,16.67
2019-01-06T14:58:48.340Z,13.03
2019-01-06T15:01:36.998Z,17.07
2019-01-06T15:04:24.339Z,14.33
2019-01-06T15:07:19.480Z,14.15
2019-01-06T15:10:11.724Z,14.67
2019-01-06T15:13:00.317Z,16.67
2019-01-06T15:15:44.859Z,14.17
2019-01-06T15:18:36.242Z,16.40
2019-01-06T15:21:24.908Z,17.63
2019-01-06T15:24:26.238Z,16.70
2019-01-06T15:27:14.264Z,13.90
2019-01-06T15:30:01.558Z,16.23
2019-01-06T15:32:53.604Z,13.53
2019-01-06T15:35:57.929Z,14.87
2019-01-06T15:38:52.952Z,17.62
2019-01-06T15:41:40.321Z,16.30
2019-01-06T15:44:28.015Z,10.57
2019-01-06T15:47:15.095Z,17.90
2019-01-06T15:50:02.581Z,13.07
2019-01-06T15:52:50.657Z,13.47
2019-01-06T15:55:48.551Z,16.07
2019-01-06T15:58:46.244Z,16.27
2019-01-06T16:01:50.844Z,19.17
2019-01-06T16:04:38.120Z,14.13
2019-01-06T16:07:25.739Z,18.80
2019-01-06T16:10:14.900Z,16.73
2019-01-06T16:13:03.611Z,17.37
2019-01-06T16:15:50.623Z,15.57
2019-01-06T16:18:38.652Z,12.77
2019-01-06T16:21:38.107Z,11.87
2019-01-06T16:24:39.085Z,14.00
2019-01-06T16:27:30.944Z,15.17
2019-01-06T16:30:28.895Z,15.53
2019-01-06T16:33:28.834Z,18.43
2019-01-06T16:36:18.028Z,16.20
2019-01-06T16:39:15.027Z,12.57
2019-01-06T16:42:06.764Z,18.67
2019-01-06T16:44:55.936Z,11.43
2019-01-06T16:47:45.267Z,18.23
2019-01-06T16:50:33.947Z,15.70
2019-01-06T16:53:21.728Z,17.00
2019-01-06T16:56:09.822Z,16.30
2019-01-06T16:58:58.424Z,19.80
2019-01-06T17:01:55.424Z,16.43
2019-01-06T17:04:43.370Z,15.60
2019-01-06T17:07:41.662Z,13.03
2019-01-06T17:10:39.476Z,19.70
2019-01-06T17:13:24.142Z,18.97
2019-01-06T17:16:12.739Z,15.43
2019-01-06T17:18:50.294Z,19.57
2019-01-06T17:21:38.632Z,12.90
2019-01-06T17:24:26.580Z,21.70
2019-01-06T17:27:18.040Z,18.33
2019-01-06T17:30:05.699Z,17.00
2019-01-06T17:33:10.171Z,14.23
2019-01-06T17:36:09.344Z,17.57
2019-01-06T17:39:01.644Z,14.67
2019-01-06T17:41:59.400Z,19.13
2019-01-06T17:44:46.380Z,15.17
2019-01-06T17:47:34.363Z,16.30
2019-01-06T17:50:21.975Z,17.37
2019-01-06T17:53:10.571Z,15.93
2019-01-06T17:55:57.917Z,14.73
2019-01-06T17:58:59.741Z,18.70
2019-01-06T18:01:47.064Z,19.47
2019-01-06T18:04:44.499Z,16.83
2019-01-06T18:07:32.221Z,16.60
2019-01-06T18:10:21.982Z,17.80
2019-01-06T18:13:08.959Z,35.13
2019-01-06T18:16:06.628Z,36.65
2019-01-06T18:18:55.340Z,38.23
2019-01-06T18:21:47.000Z,36.43
2019-01-06T18:24:28.525Z,39.83
2019-01-06T18:27:16.071Z,72.07
2019-01-06T18:30:13.407Z,63.17
2019-01-06T18:33:05.605Z,31.90
2019-01-06T18:35:52.420Z,35.00
2019-01-06T18:38:39.988Z,32.60
2019-01-06T18:41:27.699Z,24.07
2019-01-06T18:44:15.063Z,21.10
2019-01-06T18:47:07.365Z,15.47
2019-01-06T18:50:06.651Z,22.82
2019-01-06T18:53:04.196Z,16.03
2019-01-06T18:55:59.448Z,20.43
2019-01-06T18:58:48.067Z,21.13
2019-01-06T19:01:35.392Z,14.73
2019-01-06T19:04:42.455Z,20.07
2019-01-06T19:07:33.832Z,21.47
2019-01-06T19:10:37.380Z,18.93
2019-01-06T19:13:24.501Z,21.43
2019-01-06T19:16:11.832Z,23.73
2019-01-06T19:19:08.837Z,18.63
2019-01-06T19:22:13.351Z,16.40
2019-01-06T19:25:01.272Z,15.70
2019-01-06T19:27:55.880Z,14.77
2019-01-06T19:30:44.472Z,16.97
2019-01-06T19:33:42.997Z,17.93
2019-01-06T19:36:40.065Z,20.17
2019-01-06T19:39:38.345Z,15.73
2019-01-06T19:42:27.043Z,16.27
2019-01-06T19:45:14.612Z,15.07
2019-01-06T19:48:21.896Z,14.57
2019-01-06T19:51:13.165Z,18.40
2019-01-06T19:54:00.033Z,21.77
2019-01-06T19:56:47.603Z,18.90
2019-01-06T19:59:51.606Z,14.53
2019-01-06T20:02:39.318Z,15.43
2019-01-06T20:05:28.595Z,15.87
2019-01-06T20:08:20.303Z,17.67
2019-01-06T20:11:21.456Z,22.87
2019-01-06T20:14:06.224Z,18.80
2019-01-06T20:17:01.528Z,16.13
2019-01-06T20:19:48.856Z,22.60
2019-01-06T20:22:46.568Z,23.00
2019-01-06T20:25:50.539Z,18.37
2019-01-06T20:28:39.392Z,26.33
2019-01-06T20:31:26.563Z,25.40
2019-01-06T20:34:15.752Z,25.27
2019-01-06T20:36:59.623Z,20.17
2019-01-06T20:40:03.688Z,55.17
2019-01-06T20:42:55.519Z,60.37
2019-01-06T20:45:43.071Z,34.87
2019-01-06T20:48:41.540Z,29.80
2019-01-06T20:51:39.905Z,20.40
2019-01-06T20:54:28.611Z,18.80
2019-01-06T20:57:16.660Z,17.20
2019-01-06T21:00:04.317Z,16.77
2019-01-06T21:02:52.983Z,20.73
2019-01-06T21:05:40.811Z,22.97
2019-01-06T21:08:32.733Z,26.50
2019-01-06T21:11:27.608Z,19.03
2019-01-06T21:14:31.393Z,23.20
2019-01-06T21:17:35.741Z,20.40
2019-01-06T21:20:31.240Z,14.10
2019-01-06T21:23:26.556Z,23.97
2019-01-06T21:26:13.848Z,21.43
2019-01-06T21:29:08.508Z,24.30
2019-01-06T21:31:56.603Z,16.50
2019-01-06T21:34:51.360Z,21.03
2019-01-06T21:37:49.440Z,22.43
2019-01-06T21:40:38.077Z,23.33
2019-01-06T21:43:26.808Z,20.07
2019-01-06T21:46:13.964Z,21.67
2019-01-06T21:49:01.605Z,23.10
2019-01-06T21:51:56.067Z,22.90
2019-01-06T21:54:47.085Z,21.87
2019-01-06T21:57:41.971Z,19.40
2019-01-06T22:00:26.881Z,21.73
2019-01-06T22:03:25.427Z,17.73
2019-01-06T22:06:17.348Z,18.03
2019-01-06T22:09:21.002Z,21.20
2019-01-06T22:12:07.976Z,29.23
2019-01-06T22:15:12.248Z,20.47
2019-01-06T22:18:08.160Z,18.67
2019-01-06T22:20:59.520Z,21.17
2019-01-06T22:23:48.120Z,18.43
2019-01-06T22:26:45.580Z,19.50
2019-01-06T22:29:49.209Z,25.33
2019-01-06T22:32:38.396Z,15.43
2019-01-06T22:35:35.142Z,21.53
2019-01-06T22:38:23.288Z,25.17
2019-01-06T22:41:12.549Z,21.75
2019-01-06T22:44:00.716Z,18.17
2019-01-06T22:46:41.769Z,20.53
2019-01-06T22:49:23.430Z,22.13
2019-01-06T22:52:18.505Z,19.43
2019-01-06T22:55:06.387Z,15.72
2019-01-06T22:58:07.765Z,22.70
2019-01-06T23:01:02.565Z,24.40
2019-01-06T23:03:40.547Z,26.00
2019-01-06T23:06:28.669Z,18.07
2019-01-06T23:09:21.236Z,21.37
2019-01-06T23:12:10.471Z,17.67
2019-01-06T23:15:18.064Z,15.07
2019-01-06T23:18:05.976Z,20.13
2019-01-06T23:20:52.032Z,22.13
2019-01-06T23:23:56.460Z,21.07
2019-01-06T23:26:39.703Z,13.03
2019-01-06T23:29:31.879Z,21.13
2019-01-06T23:32:19.962Z,17.33
2019-01-06T23:35:12.284Z,17.53
2019-01-06T23:38:16.900Z,23.30
2019-01-06T23:41:05.208Z,23.73
2019-01-06T23:44:09.570Z,17.62
2019-01-06T23:47:08.082Z,16.27
2019-01-06T23:50:12.492Z,19.97
2019-01-06T23:53:00.375Z,19.43
2019-01-06T23:55:48.472Z,22.32
2019-01-06T23:58:46.924Z,22.97
